createdAt,value
2017-09-23T00:00:57.064Z,4.30
2017-09-23T00:03:28.772Z,4.18
2017-09-23T00:06:00.362Z,5.27
2017-09-23T00:08:32.240Z,6.00
2017-09-23T00:11:04.633Z,5.28
2017-09-23T00:13:36.462Z,4.57
2017-09-23T00:16:08.130Z,5.23
2017-09-23T00:18:39.729Z,6.80
2017-09-23T00:21:12.791Z,4.53
2017-09-23T00:23:44.533Z,5.10
2017-09-23T00:26:16.424Z,7.10
2017-09-23T00:28:47.866Z,6.57
2017-09-23T00:31:19.985Z,4.07
2017-09-23T00:33:51.008Z,5.80
2017-09-23T00:36:23.564Z,5.37
2017-09-23T00:38:55.319Z,4.77
2017-09-23T00:41:27.717Z,6.05
2017-09-23T00:43:59.970Z,6.10
2017-09-23T00:46:31.606Z,4.07
2017-09-23T00:49:02.292Z,7.37
2017-09-23T00:51:34.663Z,5.07
2017-09-23T00:54:08.518Z,5.43
2017-09-23T00:56:41.056Z,5.07
2017-09-23T00:59:12.185Z,5.30
2017-09-23T01:01:46.109Z,6.00
2017-09-23T01:04:18.604Z,7.10
2017-09-23T01:06:50.555Z,8.43
2017-09-23T01:09:19.053Z,4.40
2017-09-23T01:11:50.456Z,5.60
2017-09-23T01:14:22.172Z,6.03
2017-09-23T01:16:53.893Z,5.37
2017-09-23T01:19:26.069Z,4.43
2017-09-23T01:21:59.424Z,6.27
2017-09-23T01:24:31.317Z,3.87
2017-09-23T01:27:03.423Z,7.30
2017-09-23T01:29:35.707Z,4.05
2017-09-23T01:32:07.512Z,4.53
2017-09-23T01:34:38.455Z,6.30
2017-09-23T01:37:09.836Z,4.20
2017-09-23T01:39:41.734Z,6.40
2017-09-23T01:42:14.095Z,4.53
2017-09-23T01:44:46.788Z,4.20
2017-09-23T01:47:18.444Z,7.47
2017-09-23T01:49:50.123Z,4.03
2017-09-23T01:52:23.588Z,5.53
2017-09-23T01:54:55.321Z,4.90
2017-09-23T01:57:27.839Z,7.53
2017-09-23T01:59:59.363Z,6.20
2017-09-23T02:02:32.136Z,4.60
2017-09-23T02:05:04.439Z,5.70
2017-09-23T02:07:36.069Z,4.60
2017-09-23T02:10:08.494Z,4.47
2017-09-23T02:12:40.235Z,7.30
2017-09-23T02:15:12.152Z,8.10
2017-09-23T02:17:44.505Z,5.55
2017-09-23T02:20:16.218Z,6.63
2017-09-23T02:22:47.919Z,4.72
2017-09-23T02:25:19.538Z,9.03
2017-09-23T02:27:51.300Z,5.10
2017-09-23T02:30:23.100Z,6.67
2017-09-23T02:32:55.541Z,7.40
2017-09-23T02:35:27.008Z,7.10
2017-09-23T02:37:58.937Z,6.47
2017-09-23T02:40:31.415Z,5.30
2017-09-23T02:43:03.604Z,4.83
2017-09-23T02:45:35.264Z,7.62
2017-09-23T02:48:03.836Z,6.30
2017-09-23T02:50:35.444Z,5.37
2017-09-23T02:53:08.031Z,4.97
2017-09-23T02:55:37.191Z,5.60
2017-09-23T02:58:08.455Z,4.80
2017-09-23T03:00:40.054Z,7.37
2017-09-23T03:03:12.849Z,7.20
2017-09-23T03:05:45.386Z,8.87
2017-09-23T03:08:17.006Z,6.93
2017-09-23T03:10:48.492Z,6.67
2017-09-23T03:13:18.134Z,6.73
2017-09-23T03:15:50.519Z,7.73
2017-09-23T03:18:22.769Z,6.83
2017-09-23T03:20:54.969Z,7.33
2017-09-23T03:23:27.532Z,5.10
2017-09-23T03:25:59.530Z,7.20
2017-09-23T03:28:31.218Z,7.00
2017-09-23T03:31:01.632Z,5.17
2017-09-23T03:33:34.246Z,4.70
2017-09-23T03:36:06.755Z,5.40
2017-09-23T03:38:38.976Z,7.40
2017-09-23T03:41:10.589Z,10.70
2017-09-23T03:43:42.499Z,9.88
2017-09-23T03:46:14.411Z,11.20
2017-09-23T03:48:46.609Z,12.13
2017-09-23T03:51:19.023Z,16.40
2017-09-23T03:53:50.894Z,12.97
2017-09-23T03:56:22.603Z,21.10
2017-09-23T03:58:54.303Z,25.93
2017-09-23T04:01:27.521Z,28.00
2017-09-23T04:04:00.703Z,57.43
2017-09-23T04:06:32.158Z,36.57
2017-09-23T04:09:03.788Z,19.93
2017-09-23T04:11:35.543Z,10.48
2017-09-23T04:14:07.934Z,47.33
2017-09-23T04:16:39.699Z,15.40
2017-09-23T04:19:10.960Z,17.43
2017-09-23T04:21:43.250Z,11.77
2017-09-23T04:24:15.693Z,40.12
2017-09-23T04:26:47.535Z,11.37
2017-09-23T04:29:19.813Z,17.13
2017-09-23T04:31:51.527Z,9.20
2017-09-23T04:34:24.129Z,17.40
2017-09-23T04:36:55.844Z,12.63
2017-09-23T04:39:25.373Z,10.70
2017-09-23T04:41:57.062Z,35.50
2017-09-23T04:44:30.776Z,20.27
2017-09-23T04:47:02.722Z,12.83
2017-09-23T04:49:34.488Z,18.00
2017-09-23T04:52:06.998Z,15.00
2017-09-23T04:54:39.357Z,20.10
2017-09-23T04:57:10.675Z,12.33
2017-09-23T04:59:42.342Z,30.42
2017-09-23T05:02:10.823Z,15.87
2017-09-23T05:04:42.770Z,14.80
2017-09-23T05:07:14.449Z,17.30
2017-09-23T05:09:46.020Z,12.95
2017-09-23T05:12:15.551Z,9.97
2017-09-23T05:14:47.930Z,14.40
2017-09-23T05:17:19.362Z,9.53
2017-09-23T05:19:51.081Z,18.77
2017-09-23T05:22:22.653Z,11.67
2017-09-23T05:24:53.082Z,18.63
2017-09-23T05:27:25.017Z,13.83
2017-09-23T05:29:57.589Z,13.37
2017-09-23T05:32:31.193Z,10.03
2017-09-23T05:35:05.310Z,11.00
2017-09-23T05:37:35.062Z,10.10
2017-09-23T05:40:06.555Z,10.63
2017-09-23T05:42:37.955Z,9.70
2017-09-23T05:45:10.545Z,11.40
2017-09-23T05:47:43.072Z,11.32
2017-09-23T05:50:13.410Z,16.00
2017-09-23T05:52:45.479Z,11.37
2017-09-23T05:55:18.655Z,13.00
2017-09-23T05:57:51.596Z,13.65
2017-09-23T06:00:23.500Z,8.60
2017-09-23T06:02:54.980Z,11.37
2017-09-23T06:05:27.923Z,8.20
2017-09-23T06:07:59.566Z,9.00
2017-09-23T06:10:31.255Z,7.13
2017-09-23T06:13:02.298Z,8.55
2017-09-23T06:15:34.086Z,11.50
2017-09-23T06:18:06.372Z,8.57
2017-09-23T06:20:38.688Z,6.90
2017-09-23T06:23:10.101Z,7.20
2017-09-23T06:25:42.423Z,8.18
2017-09-23T06:28:14.246Z,7.07
2017-09-23T06:30:46.815Z,9.23
2017-09-23T06:33:18.993Z,7.53
2017-09-23T06:35:51.980Z,9.15
2017-09-23T06:38:23.643Z,7.67
2017-09-23T06:40:55.301Z,7.93
2017-09-23T06:43:26.464Z,7.40
2017-09-23T06:45:58.952Z,7.60
2017-09-23T06:48:30.498Z,8.83
2017-09-23T06:50:59.630Z,9.17
2017-09-23T06:53:31.234Z,9.73
2017-09-23T06:55:59.719Z,6.13
2017-09-23T06:58:28.102Z,7.30
2017-09-23T07:00:56.413Z,10.13
2017-09-23T07:03:24.736Z,7.33
2017-09-23T07:05:53.862Z,9.70
2017-09-23T07:08:22.315Z,10.50
2017-09-23T07:10:51.409Z,8.17
2017-09-23T07:13:20.822Z,6.33
2017-09-23T07:15:49.935Z,9.95
2017-09-23T07:18:18.259Z,10.07
2017-09-23T07:20:46.642Z,10.50
2017-09-23T07:23:14.957Z,8.77
2017-09-23T07:25:44.086Z,10.90
2017-09-23T07:28:12.426Z,8.60
2017-09-23T07:30:41.526Z,11.07
2017-09-23T07:33:10.615Z,10.00
2017-09-23T07:35:39.737Z,11.50
2017-09-23T07:38:08.831Z,11.60
2017-09-23T07:40:37.926Z,7.63
2017-09-23T07:43:07.050Z,12.90
2017-09-23T07:45:36.617Z,9.40
2017-09-23T07:48:04.938Z,12.00
2017-09-23T07:50:33.423Z,10.73
2017-09-23T07:53:01.792Z,10.70
2017-09-23T07:55:30.123Z,9.07
2017-09-23T07:57:58.478Z,8.50
2017-09-23T08:00:26.898Z,8.40
2017-09-23T08:02:55.247Z,15.80
2017-09-23T08:05:23.603Z,14.77
2017-09-23T08:07:51.931Z,12.60
2017-09-23T08:10:20.282Z,9.13
2017-09-23T08:12:48.615Z,12.00
2017-09-23T08:15:17.711Z,19.63
2017-09-23T08:17:47.328Z,18.33
2017-09-23T08:20:16.778Z,17.42
2017-09-23T08:22:45.928Z,16.57
2017-09-23T08:25:15.046Z,17.70
2017-09-23T08:27:43.371Z,19.27
2017-09-23T08:30:11.694Z,17.53
2017-09-23T08:32:40.819Z,20.03
2017-09-23T08:35:09.138Z,18.60
2017-09-23T08:37:38.415Z,20.95
2017-09-23T08:40:06.777Z,21.40
2017-09-23T08:42:35.111Z,19.00
2017-09-23T08:45:03.467Z,19.73
2017-09-23T08:47:31.794Z,23.13
2017-09-23T08:50:00.890Z,26.57
2017-09-23T08:52:30.021Z,28.73
2017-09-23T08:54:58.398Z,21.90
2017-09-23T08:57:26.725Z,22.93
2017-09-23T08:59:55.077Z,20.77
2017-09-23T09:02:23.405Z,23.83
2017-09-23T09:04:52.509Z,22.70
2017-09-23T09:07:20.867Z,23.10
2017-09-23T09:09:49.203Z,20.95
2017-09-23T09:12:17.558Z,24.50
2017-09-23T09:14:45.883Z,20.10
2017-09-23T09:17:14.206Z,19.57
2017-09-23T09:19:43.325Z,24.27
2017-09-23T09:22:11.645Z,21.27
2017-09-23T09:24:39.969Z,23.40
2017-09-23T09:27:08.332Z,19.20
2017-09-23T09:29:38.699Z,19.75
2017-09-23T09:32:07.027Z,21.13
2017-09-23T09:34:36.153Z,19.37
2017-09-23T09:37:05.245Z,16.93
2017-09-23T09:39:34.334Z,22.03
2017-09-23T09:42:03.452Z,23.07
2017-09-23T09:44:31.805Z,19.03
2017-09-23T09:47:00.908Z,22.27
2017-09-23T09:49:30.022Z,17.10
2017-09-23T09:51:58.353Z,20.37
2017-09-23T09:54:26.711Z,19.80
2017-09-23T09:56:55.034Z,18.50
2017-09-23T09:59:23.368Z,20.17
2017-09-23T10:01:51.730Z,21.33
2017-09-23T10:04:20.054Z,24.33
2017-09-23T10:06:48.386Z,21.17
2017-09-23T10:09:16.738Z,21.90
2017-09-23T10:11:45.072Z,19.30
2017-09-23T10:14:13.422Z,22.07
2017-09-23T10:16:42.521Z,18.00
2017-09-23T10:19:11.610Z,23.10
2017-09-23T10:21:40.726Z,20.97
2017-09-23T10:24:09.054Z,19.30
2017-09-23T10:26:37.421Z,21.70
2017-09-23T10:29:05.746Z,23.87
2017-09-23T10:31:34.834Z,21.23
2017-09-23T10:34:03.187Z,21.10
2017-09-23T10:36:31.518Z,20.80
2017-09-23T10:38:59.912Z,18.73
2017-09-23T10:41:28.266Z,19.37
2017-09-23T10:43:57.743Z,18.13
2017-09-23T10:46:26.099Z,21.73
2017-09-23T10:48:54.434Z,18.67
2017-09-23T10:51:23.562Z,18.57
2017-09-23T10:53:51.899Z,23.38
2017-09-23T10:56:20.255Z,17.97
2017-09-23T10:58:48.594Z,21.55
2017-09-23T11:01:16.947Z,15.47
2017-09-23T11:03:46.058Z,18.17
2017-09-23T11:06:14.390Z,19.93
2017-09-23T11:08:42.746Z,18.10
2017-09-23T11:11:11.088Z,18.40
2017-09-23T11:13:40.188Z,17.97
2017-09-23T11:16:09.315Z,19.60
2017-09-23T11:18:37.663Z,16.40
2017-09-23T11:21:06.772Z,16.30
2017-09-23T11:23:36.000Z,16.77
2017-09-23T11:26:04.380Z,17.53
2017-09-23T11:28:32.739Z,17.03
2017-09-23T11:31:01.084Z,16.40
2017-09-23T11:33:29.467Z,14.57
2017-09-23T11:35:57.923Z,15.07
2017-09-23T11:38:26.294Z,16.37
2017-09-23T11:40:54.627Z,16.90
2017-09-23T11:43:23.729Z,16.90
2017-09-23T11:45:52.863Z,14.60
2017-09-23T11:48:21.204Z,16.93
2017-09-23T11:50:50.333Z,13.47
2017-09-23T11:53:18.683Z,17.43
2017-09-23T11:55:47.818Z,14.30
2017-09-23T11:58:16.152Z,16.90
2017-09-23T12:00:44.492Z,16.23
2017-09-23T12:03:12.855Z,14.30
2017-09-23T12:05:41.191Z,16.13
2017-09-23T12:08:10.311Z,11.43
2017-09-23T12:10:39.440Z,11.80
2017-09-23T12:13:07.776Z,15.13
2017-09-23T12:15:36.876Z,15.77
2017-09-23T12:18:06.011Z,18.60
2017-09-23T12:20:34.346Z,15.30
2017-09-23T12:23:03.459Z,14.53
2017-09-23T12:25:32.595Z,15.03
2017-09-23T12:28:00.932Z,14.00
2017-09-23T12:30:30.031Z,12.60
2017-09-23T12:32:59.160Z,11.73
2017-09-23T12:35:27.492Z,12.57
2017-09-23T12:37:55.866Z,11.60
2017-09-23T12:40:24.238Z,14.43
2017-09-23T12:42:52.578Z,12.57
2017-09-23T12:45:20.911Z,13.07
2017-09-23T12:47:49.279Z,16.00
2017-09-23T12:50:17.613Z,15.07
2017-09-23T12:52:45.971Z,12.97
2017-09-23T12:55:15.068Z,13.40
2017-09-23T12:57:44.183Z,11.40
2017-09-23T13:00:12.515Z,13.13
2017-09-23T13:02:40.917Z,14.73
2017-09-23T13:05:09.259Z,13.47
2017-09-23T13:07:37.630Z,12.57
2017-09-23T13:10:05.995Z,15.57
2017-09-23T13:12:34.321Z,15.70
2017-09-23T13:15:02.679Z,14.60
2017-09-23T13:17:31.080Z,13.50
2017-09-23T13:19:59.415Z,10.68
2017-09-23T13:22:27.750Z,10.40
2017-09-23T13:24:56.208Z,12.83
2017-09-23T13:27:24.592Z,12.47
2017-09-23T13:29:52.972Z,12.80
2017-09-23T13:32:21.335Z,14.57
2017-09-23T13:34:49.684Z,12.70
2017-09-23T13:37:18.785Z,15.30
2017-09-23T13:39:47.949Z,17.60
2017-09-23T13:42:16.288Z,14.20
2017-09-23T13:44:44.665Z,14.38
2017-09-23T13:47:13.039Z,15.20
2017-09-23T13:49:41.372Z,12.70
2017-09-23T13:52:11.241Z,13.13
2017-09-23T13:54:39.576Z,14.30
2017-09-23T13:57:07.914Z,11.90
2017-09-23T13:59:36.274Z,12.77
2017-09-23T14:02:04.609Z,13.73
2017-09-23T14:04:32.941Z,12.07
2017-09-23T14:07:01.308Z,16.87
2017-09-23T14:09:29.648Z,20.73
2017-09-23T14:11:57.984Z,13.97
2017-09-23T14:14:26.345Z,15.40
2017-09-23T14:16:54.707Z,12.43
2017-09-23T14:19:23.804Z,16.80
2017-09-23T14:21:52.903Z,15.20
2017-09-23T14:24:22.026Z,11.10
2017-09-23T14:26:50.385Z,10.77
2017-09-23T14:29:19.487Z,14.82
2017-09-23T14:31:48.586Z,15.45
2017-09-23T14:34:17.717Z,13.10
2017-09-23T14:36:46.059Z,15.60
2017-09-23T14:39:15.193Z,13.10
2017-09-23T14:41:43.525Z,13.13
2017-09-23T14:44:11.881Z,14.47
2017-09-23T14:46:40.256Z,14.27
2017-09-23T14:49:08.586Z,16.00
2017-09-23T14:51:36.925Z,14.10
2017-09-23T14:54:05.282Z,14.27
2017-09-23T14:56:33.619Z,16.03
2017-09-23T14:59:02.736Z,12.67
2017-09-23T15:01:31.070Z,15.10
2017-09-23T15:03:59.412Z,15.47
2017-09-23T15:06:27.772Z,15.87
2017-09-23T15:08:56.143Z,14.10
2017-09-23T15:11:25.249Z,17.73
2017-09-23T15:13:53.610Z,23.40
2017-09-23T15:16:22.708Z,25.93
2017-09-23T15:18:51.806Z,26.50
2017-09-23T15:21:20.939Z,21.70
2017-09-23T15:23:49.285Z,25.60
2017-09-23T15:26:18.406Z,26.10
2017-09-23T15:28:46.744Z,23.90
2017-09-23T15:31:15.119Z,23.87
2017-09-23T15:33:43.459Z,27.13
2017-09-23T15:36:11.805Z,25.43
2017-09-23T15:38:40.929Z,26.37
2017-09-23T15:41:09.276Z,24.27
2017-09-23T15:43:38.402Z,25.50
2017-09-23T15:46:06.751Z,22.47
2017-09-23T15:48:35.120Z,20.93
2017-09-23T15:51:03.468Z,26.17
2017-09-23T15:53:31.804Z,25.60
2017-09-23T15:56:00.944Z,27.30
2017-09-23T15:58:29.286Z,23.40
2017-09-23T16:00:58.427Z,27.77
2017-09-23T16:03:26.759Z,23.97
2017-09-23T16:05:55.859Z,22.90
2017-09-23T16:08:24.989Z,21.50
2017-09-23T16:10:53.325Z,20.77
2017-09-23T16:13:21.662Z,22.63
2017-09-23T16:15:50.022Z,23.07
2017-09-23T16:18:18.363Z,24.53
2017-09-23T16:20:46.728Z,23.13
2017-09-23T16:23:15.073Z,23.70
2017-09-23T16:25:43.431Z,31.20
2017-09-23T16:28:11.773Z,26.07
2017-09-23T16:30:40.141Z,27.87
2017-09-23T16:33:08.479Z,25.70
2017-09-23T16:35:36.811Z,26.07
2017-09-23T16:38:05.172Z,28.48
2017-09-23T16:40:33.515Z,25.77
2017-09-23T16:43:01.879Z,27.60
2017-09-23T16:45:30.977Z,26.80
2017-09-23T16:48:00.076Z,29.98
2017-09-23T16:50:29.216Z,33.90
2017-09-23T16:52:57.559Z,29.95
2017-09-23T16:55:26.692Z,29.93
2017-09-23T16:57:55.031Z,29.85
2017-09-23T17:00:24.131Z,25.63
2017-09-23T17:02:53.257Z,35.33
2017-09-23T17:05:21.595Z,30.30
2017-09-23T17:07:51.439Z,29.67
2017-09-23T17:10:20.574Z,34.60
2017-09-23T17:12:48.927Z,37.70
2017-09-23T17:15:17.317Z,35.03
2017-09-23T17:17:45.663Z,30.97
2017-09-23T17:20:14.764Z,31.47
2017-09-23T17:22:43.896Z,36.10
2017-09-23T17:25:12.240Z,32.40
2017-09-23T17:27:41.339Z,30.63
2017-09-23T17:30:10.464Z,36.43
2017-09-23T17:32:38.803Z,29.37
2017-09-23T17:35:07.151Z,39.97
2017-09-23T17:37:35.520Z,39.27
2017-09-23T17:40:03.872Z,36.10
2017-09-23T17:42:32.207Z,37.23
2017-09-23T17:45:00.567Z,30.83
2017-09-23T17:47:28.897Z,35.20
2017-09-23T17:49:58.005Z,36.90
2017-09-23T17:52:27.233Z,33.77
2017-09-23T17:54:55.563Z,33.70
2017-09-23T17:57:23.967Z,41.60
2017-09-23T17:59:54.350Z,34.70
2017-09-23T18:02:22.680Z,33.57
2017-09-23T18:04:51.011Z,31.63
2017-09-23T18:07:19.367Z,29.50
2017-09-23T18:09:47.706Z,28.90
2017-09-23T18:12:16.825Z,35.00
2017-09-23T18:14:45.181Z,30.07
2017-09-23T18:17:14.280Z,32.50
2017-09-23T18:19:43.381Z,32.50
2017-09-23T18:22:12.515Z,27.40
2017-09-23T18:24:40.843Z,29.20
2017-09-23T18:27:09.181Z,22.80
2017-09-23T18:29:39.005Z,24.37
2017-09-23T18:32:07.344Z,34.55
2017-09-23T18:34:35.685Z,27.00
2017-09-23T18:37:04.052Z,26.33
2017-09-23T18:39:35.918Z,27.97
2017-09-23T18:42:04.337Z,25.48
2017-09-23T18:44:33.581Z,23.50
2017-09-23T18:47:01.918Z,25.53
2017-09-23T18:49:31.015Z,27.07
2017-09-23T18:52:00.150Z,27.33
2017-09-23T18:54:28.510Z,24.58
2017-09-23T18:56:56.853Z,23.93
2017-09-23T18:59:25.217Z,33.00
2017-09-23T19:01:53.557Z,31.60
2017-09-23T19:04:21.896Z,40.33
2017-09-23T19:06:50.461Z,46.80
2017-09-23T19:09:18.849Z,41.63
2017-09-23T19:11:47.220Z,36.80
2017-09-23T19:14:15.623Z,28.67
2017-09-23T19:16:44.754Z,30.80
2017-09-23T19:19:13.882Z,29.80
2017-09-23T19:21:42.215Z,29.10
2017-09-23T19:24:11.314Z,28.85
2017-09-23T19:26:40.471Z,41.63
2017-09-23T19:29:08.805Z,56.80
2017-09-23T19:31:37.952Z,59.83
2017-09-23T19:34:06.395Z,53.70
2017-09-23T19:36:34.740Z,52.40
2017-09-23T19:39:03.120Z,44.83
2017-09-23T19:41:31.484Z,47.07
2017-09-23T19:43:59.831Z,47.55
2017-09-23T19:46:28.182Z,46.63
2017-09-23T19:48:57.796Z,46.57
2017-09-23T19:51:26.179Z,41.10
2017-09-23T19:53:55.311Z,36.53
2017-09-23T19:56:23.661Z,41.67
2017-09-23T19:58:52.792Z,44.30
2017-09-23T20:01:21.136Z,37.57
2017-09-23T20:03:50.260Z,33.90
2017-09-23T20:06:18.623Z,39.30
2017-09-23T20:08:46.961Z,36.77
2017-09-23T20:11:15.300Z,37.77
2017-09-23T20:13:43.664Z,40.65
2017-09-23T20:16:12.009Z,39.40
2017-09-23T20:18:40.350Z,41.03
2017-09-23T20:21:08.707Z,45.73
2017-09-23T20:23:37.047Z,40.43
2017-09-23T20:26:05.429Z,43.73
2017-09-23T20:28:33.776Z,43.93
2017-09-23T20:31:02.120Z,44.47
2017-09-23T20:33:31.251Z,49.13
2017-09-23T20:35:59.652Z,42.38
2017-09-23T20:38:28.152Z,41.57
2017-09-23T20:40:56.696Z,33.27
2017-09-23T20:43:25.036Z,40.83
2017-09-23T20:45:54.131Z,35.03
2017-09-23T20:48:23.254Z,43.83
2017-09-23T20:50:51.592Z,49.67
2017-09-23T20:53:20.237Z,45.13
2017-09-23T20:55:49.035Z,38.13
2017-09-23T20:58:17.857Z,43.78
2017-09-23T21:00:46.254Z,33.93
2017-09-23T21:03:14.687Z,34.70
2017-09-23T21:05:43.029Z,38.23
2017-09-23T21:08:12.159Z,32.23
2017-09-23T21:10:40.487Z,38.43
2017-09-23T21:13:08.827Z,34.17
2017-09-23T21:15:37.190Z,37.37
2017-09-23T21:18:06.473Z,35.97
2017-09-23T21:20:35.575Z,37.90
2017-09-23T21:23:04.706Z,31.40
2017-09-23T21:25:33.038Z,34.03
2017-09-23T21:28:02.140Z,36.63
2017-09-23T21:30:31.272Z,35.53
2017-09-23T21:32:59.607Z,45.97
2017-09-23T21:35:27.954Z,46.50
2017-09-23T21:37:56.323Z,41.80
2017-09-23T21:40:24.659Z,38.03
2017-09-23T21:42:53.799Z,36.23
2017-09-23T21:45:22.140Z,39.53
2017-09-23T21:47:51.262Z,37.50
2017-09-23T21:50:19.591Z,42.45
2017-09-23T21:52:47.932Z,33.47
2017-09-23T21:55:16.288Z,36.43
2017-09-23T21:57:45.391Z,36.20
2017-09-23T22:00:13.753Z,35.58
2017-09-23T22:02:42.879Z,57.87
2017-09-23T22:05:11.223Z,70.73
2017-09-23T22:07:39.585Z,42.03
2017-09-23T22:10:07.978Z,35.30
2017-09-23T22:12:36.336Z,45.10
2017-09-23T22:15:04.677Z,42.73
2017-09-23T22:17:33.035Z,40.87
2017-09-23T22:20:02.155Z,35.57
2017-09-23T22:22:31.378Z,43.07
2017-09-23T22:24:59.712Z,33.67
2017-09-23T22:27:28.845Z,37.03
2017-09-23T22:29:57.179Z,42.33
2017-09-23T22:32:25.519Z,37.38
2017-09-23T22:34:53.878Z,37.10
2017-09-23T22:37:22.208Z,39.47
2017-09-23T22:39:50.567Z,37.53
2017-09-23T22:42:18.899Z,38.70
2017-09-23T22:44:47.990Z,42.40
2017-09-23T22:47:17.124Z,49.47
2017-09-23T22:49:45.466Z,53.70
2017-09-23T22:52:14.563Z,41.70
2017-09-23T22:54:43.691Z,46.00
2017-09-23T22:57:12.041Z,33.57
2017-09-23T22:59:41.145Z,58.83
2017-09-23T23:02:10.272Z,34.87
2017-09-23T23:04:38.615Z,43.40
2017-09-23T23:07:07.744Z,44.60
2017-09-23T23:09:36.118Z,48.33
2017-09-23T23:12:04.477Z,33.63
2017-09-23T23:14:33.600Z,39.47
2017-09-23T23:17:01.931Z,33.63
2017-09-23T23:19:30.262Z,39.10
2017-09-23T23:21:58.623Z,40.20
2017-09-23T23:24:27.723Z,46.05
2017-09-23T23:26:56.826Z,37.50
2017-09-23T23:29:25.951Z,41.60
2017-09-23T23:31:54.278Z,46.10
2017-09-23T23:34:22.614Z,37.80
2017-09-23T23:36:50.975Z,44.63
2017-09-23T23:39:19.308Z,42.20
2017-09-23T23:41:47.654Z,40.80
2017-09-23T23:44:16.023Z,34.30
2017-09-23T23:46:44.351Z,33.17
2017-09-23T23:49:12.694Z,37.43
2017-09-23T23:51:41.046Z,32.67
2017-09-23T23:54:09.379Z,37.77
2017-09-23T23:56:37.707Z,34.97
2017-09-23T23:59:06.075Z,36.60
